sensor_id;sensor_type;location;lat;lon;timestamp;pressure;altitude;pressure_sealevel;temperature;humidity
55149;BME280;49539;48.160;11.530;2022-11-20T00:02:14;95205.16;;;5.61;100.00
55149;BME280;49539;48.160;11.530;2022-11-20T00:04:39;95213.19;;;5.68;100.00
55149;BME280;49539;48.160;11.530;2022-11-20T00:07:05;95214.22;;;5.78;100.00
55149;BME280;49539;48.160;11.530;2022-11-20T00:09:30;95211.09;;;5.80;100.00
55149;BME280;49539;48.160;11.530;2022-11-20T00:11:55;95212.78;;;5.70;100.00
55149;BME280;49539;48.160;11.530;2022-11-20T00:14:20;95219.59;;;5.82;100.00
55149;BME280;49539;48.160;11.530;2022-11-20T00:16:46;95215.78;;;5.76;100.00
55149;BME280;49539;48.160;11.530;2022-11-20T00:19:11;95224.63;;;5.80;100.00
55149;BME280;49539;48.160;11.530;2022-11-20T00:21:36;95222.88;;;5.66;100.00
55149;BME280;49539;48.160;11.530;2022-11-20T00:24:02;95215.94;;;5.65;100.00
55149;BME280;49539;48.160;11.530;2022-11-20T00:26:27;95217.84;;;5.68;100.00
55149;BME280;49539;48.160;11.530;2022-11-20T00:28:54;95222.94;;;5.59;100.00
55149;BME280;49539;48.160;11.530;2022-11-20T00:31:21;95228.31;;;5.62;100.00
55149;BME280;49539;48.160;11.530;2022-11-20T00:33:47;95219.75;;;5.67;100.00
55149;BME280;49539;48.160;11.530;2022-11-20T00:36:13;95214.47;;;5.60;100.00
55149;BME280;49539;48.160;11.530;2022-11-20T00:38:39;95218.38;;;5.56;100.00
55149;BME280;49539;48.160;11.530;2022-11-20T00:41:05;95226.38;;;5.63;100.00
55149;BME280;49539;48.160;11.530;2022-11-20T00:43:31;95226.28;;;5.70;100.00
55149;BME280;49539;48.160;11.530;2022-11-20T00:46:00;95228.69;;;5.64;100.00
55149;BME280;49539;48.160;11.530;2022-11-20T00:48:26;95227.84;;;5.67;100.00
55149;BME280;49539;48.160;11.530;2022-11-20T00:50:51;95230.16;;;5.69;100.00
55149;BME280;49539;48.160;11.530;2022-11-20T00:53:17;95232.88;;;5.69;100.00
55149;BME280;49539;48.160;11.530;2022-11-20T00:55:42;95233.13;;;5.78;100.00
55149;BME280;49539;48.160;11.530;2022-11-20T00:58:07;95237.38;;;5.79;100.00
55149;BME280;49539;48.160;11.530;2022-11-20T01:00:32;95243.59;;;5.76;100.00
55149;BME280;49539;48.160;11.530;2022-11-20T01:02:58;95241.38;;;5.67;100.00
55149;BME280;49539;48.160;11.530;2022-11-20T01:05:23;95239.09;;;5.66;100.00
55149;BME280;49539;48.160;11.530;2022-11-20T01:07:48;95237.06;;;5.73;100.00
55149;BME280;49539;48.160;11.530;2022-11-20T01:10:14;95243.59;;;5.76;100.00
55149;BME280;49539;48.160;11.530;2022-11-20T01:12:39;95249.53;;;5.64;100.00
55149;BME280;49539;48.160;11.530;2022-11-20T01:15:04;95247.25;;;5.59;100.00
55149;BME280;49539;48.160;11.530;2022-11-20T01:17:30;95249.81;;;5.73;100.00
55149;BME280;49539;48.160;11.530;2022-11-20T01:19:56;95254.03;;;5.74;100.00
55149;BME280;49539;48.160;11.530;2022-11-20T01:22:21;95257.53;;;5.71;100.00
55149;BME280;49539;48.160;11.530;2022-11-20T01:24:46;95251.88;;;5.62;100.00
55149;BME280;49539;48.160;11.530;2022-11-20T01:27:12;95249.47;;;5.67;100.00
55149;BME280;49539;48.160;11.530;2022-11-20T01:29:37;95249.06;;;5.72;100.00
55149;BME280;49539;48.160;11.530;2022-11-20T01:32:03;95246.38;;;5.69;100.00
55149;BME280;49539;48.160;11.530;2022-11-20T01:34:28;95250.13;;;5.79;100.00
55149;BME280;49539;48.160;11.530;2022-11-20T01:36:53;95254.44;;;5.72;100.00
55149;BME280;49539;48.160;11.530;2022-11-20T01:39:22;95252.78;;;5.82;100.00
55149;BME280;49539;48.160;11.530;2022-11-20T01:41:49;95262.06;;;5.81;100.00
55149;BME280;49539;48.160;11.530;2022-11-20T01:47:20;95257.91;;;5.73;100.00
55149;BME280;49539;48.160;11.530;2022-11-20T01:49:48;95252.91;;;5.71;100.00
55149;BME280;49539;48.160;11.530;2022-11-20T01:52:20;95264.06;;;5.77;100.00
55149;BME280;49539;48.160;11.530;2022-11-20T01:54:53;95260.97;;;5.75;100.00
55149;BME280;49539;48.160;11.530;2022-11-20T01:57:21;95262.16;;;5.74;100.00
55149;BME280;49539;48.160;11.530;2022-11-20T01:59:49;95262.25;;;5.63;100.00
55149;BME280;49539;48.160;11.530;2022-11-20T02:02:16;95259.09;;;5.72;100.00
55149;BME280;49539;48.160;11.530;2022-11-20T02:04:42;95249.06;;;5.72;100.00
55149;BME280;49539;48.160;11.530;2022-11-20T02:07:07;95254.50;;;5.69;100.00
55149;BME280;49539;48.160;11.530;2022-11-20T02:09:33;95257.28;;;5.62;100.00
55149;BME280;49539;48.160;11.530;2022-11-20T02:11:58;95256.03;;;5.70;100.00
55149;BME280;49539;48.160;11.530;2022-11-20T02:14:24;95262.97;;;5.67;100.00
55149;BME280;49539;48.160;11.530;2022-11-20T02:16:50;95257.97;;;5.69;100.00
55149;BME280;49539;48.160;11.530;2022-11-20T02:19:19;95259.97;;;5.62;100.00
55149;BME280;49539;48.160;11.530;2022-11-20T02:24:12;95260.69;;;5.66;100.00
55149;BME280;49539;48.160;11.530;2022-11-20T02:26:41;95256.47;;;5.65;100.00
55149;BME280;49539;48.160;11.530;2022-11-20T02:29:07;95257.53;;;5.71;100.00
55149;BME280;49539;48.160;11.530;2022-11-20T02:31:36;95256.03;;;5.70;100.00
55149;BME280;49539;48.160;11.530;2022-11-20T02:34:02;95258.53;;;5.54;100.00
55149;BME280;49539;48.160;11.530;2022-11-20T02:36:27;95257.22;;;5.65;100.00
55149;BME280;49539;48.160;11.530;2022-11-20T02:38:53;95253.00;;;5.64;100.00
55149;BME280;49539;48.160;11.530;2022-11-20T02:41:18;95254.97;;;5.60;100.00
55149;BME280;49539;48.160;11.530;2022-11-20T02:43:44;95263.06;;;5.64;100.00
55149;BME280;49539;48.160;11.530;2022-11-20T02:46:09;95259.63;;;5.60;100.00
55149;BME280;49539;48.160;11.530;2022-11-20T02:48:34;95253.28;;;5.73;100.00
55149;BME280;49539;48.160;11.530;2022-11-20T02:51:00;95255.22;;;5.73;100.00
55149;BME280;49539;48.160;11.530;2022-11-20T02:53:25;95258.38;;;5.68;100.00
55149;BME280;49539;48.160;11.530;2022-11-20T02:55:50;95255.97;;;5.73;100.00
55149;BME280;49539;48.160;11.530;2022-11-20T02:58:16;95253.59;;;5.79;100.00
55149;BME280;49539;48.160;11.530;2022-11-20T03:00:41;95254.06;;;5.70;100.00
55149;BME280;49539;48.160;11.530;2022-11-20T03:03:07;95252.28;;;5.60;100.00
55149;BME280;49539;48.160;11.530;2022-11-20T03:05:32;95249.44;;;5.71;100.00
55149;BME280;49539;48.160;11.530;2022-11-20T03:07:57;95248.72;;;5.67;100.00
55149;BME280;49539;48.160;11.530;2022-11-20T03:10:23;95247.19;;;5.66;100.00
55149;BME280;49539;48.160;11.530;2022-11-20T03:12:52;95249.09;;;5.69;100.00
55149;BME280;49539;48.160;11.530;2022-11-20T03:15:17;95249.25;;;5.55;100.00
55149;BME280;49539;48.160;11.530;2022-11-20T03:17:42;95241.44;;;5.64;100.00
55149;BME280;49539;48.160;11.530;2022-11-20T03:20:08;95251.38;;;5.70;100.00
55149;BME280;49539;48.160;11.530;2022-11-20T03:22:34;95247.91;;;5.70;100.00
55149;BME280;49539;48.160;11.530;2022-11-20T03:24:59;95250.56;;;5.73;100.00
55149;BME280;49539;48.160;11.530;2022-11-20T03:27:24;95245.66;;;5.65;100.00
55149;BME280;49539;48.160;11.530;2022-11-20T03:29:49;95242.81;;;5.76;100.00
55149;BME280;49539;48.160;11.530;2022-11-20T03:32:15;95247.41;;;5.79;100.00
55149;BME280;49539;48.160;11.530;2022-11-20T03:34:40;95245.44;;;5.83;100.00
55149;BME280;49539;48.160;11.530;2022-11-20T03:37:05;95246.72;;;5.71;100.00
55149;BME280;49539;48.160;11.530;2022-11-20T03:39:31;95246.63;;;5.82;100.00
55149;BME280;49539;48.160;11.530;2022-11-20T03:41:56;95235.25;;;5.63;100.00
55149;BME280;49539;48.160;11.530;2022-11-20T03:44:21;95238.25;;;5.72;100.00
55149;BME280;49539;48.160;11.530;2022-11-20T03:46:47;95240.59;;;5.67;100.00
55149;BME280;49539;48.160;11.530;2022-11-20T03:49:12;95243.34;;;5.63;100.00
55149;BME280;49539;48.160;11.530;2022-11-20T03:51:37;95244.13;;;5.64;100.00
55149;BME280;49539;48.160;11.530;2022-11-20T03:54:04;95245.75;;;5.58;100.00
55149;BME280;49539;48.160;11.530;2022-11-20T03:56:30;95250.69;;;5.63;100.00
55149;BME280;49539;48.160;11.530;2022-11-20T03:58:56;95249.09;;;5.69;100.00
55149;BME280;49539;48.160;11.530;2022-11-20T04:01:23;95246.69;;;5.75;100.00
55149;BME280;49539;48.160;11.530;2022-11-20T04:03:53;95246.50;;;5.58;100.00
55149;BME280;49539;48.160;11.530;2022-11-20T04:06:19;95253.81;;;5.61;100.00
55149;BME280;49539;48.160;11.530;2022-11-20T04:08:45;95257.66;;;5.64;100.00
55149;BME280;49539;48.160;11.530;2022-11-20T04:13:36;95249.88;;;5.66;100.00
55149;BME280;49539;48.160;11.530;2022-11-20T04:16:01;95252.56;;;5.69;100.00
55149;BME280;49539;48.160;11.530;2022-11-20T04:18:27;95247.59;;;5.64;100.00
55149;BME280;49539;48.160;11.530;2022-11-20T04:20:52;95245.66;;;5.65;100.00
55149;BME280;49539;48.160;11.530;2022-11-20T04:23:17;95250.19;;;5.71;100.00
55149;BME280;49539;48.160;11.530;2022-11-20T04:25:43;95244.44;;;5.69;100.00
55149;BME280;49539;48.160;11.530;2022-11-20T04:28:08;95242.22;;;5.61;100.00
55149;BME280;49539;48.160;11.530;2022-11-20T04:30:33;95244.44;;;5.69;100.00
55149;BME280;49539;48.160;11.530;2022-11-20T04:32:59;95247.59;;;5.64;100.00
55149;BME280;49539;48.160;11.530;2022-11-20T04:35:24;95243.28;;;5.70;100.00
55149;BME280;49539;48.160;11.530;2022-11-20T04:37:52;95247.56;;;5.68;100.00
55149;BME280;49539;48.160;11.530;2022-11-20T04:40:17;95244.91;;;5.64;100.00
55149;BME280;49539;48.160;11.530;2022-11-20T04:42:43;95243.22;;;5.74;100.00
55149;BME280;49539;48.160;11.530;2022-11-20T04:45:08;95246.69;;;5.75;100.00
55149;BME280;49539;48.160;11.530;2022-11-20T04:47:33;95253.69;;;5.72;100.00
55149;BME280;49539;48.160;11.530;2022-11-20T04:49:59;95253.25;;;5.77;100.00
55149;BME280;49539;48.160;11.530;2022-11-20T04:52:24;95250.56;;;5.73;100.00
55149;BME280;49539;48.160;11.530;2022-11-20T04:54:49;95257.50;;;5.75;100.00
55149;BME280;49539;48.160;11.530;2022-11-20T04:57:18;95253.81;;;5.61;100.00
55149;BME280;49539;48.160;11.530;2022-11-20T04:59:43;95253.81;;;5.61;100.00
55149;BME280;49539;48.160;11.530;2022-11-20T05:02:08;95249.16;;;5.62;100.00
55149;BME280;49539;48.160;11.530;2022-11-20T05:04:34;95254.97;;;5.60;100.00
55149;BME280;49539;48.160;11.530;2022-11-20T05:06:59;95253.81;;;5.61;100.00
55149;BME280;49539;48.160;11.530;2022-11-20T05:09:24;95262.16;;;5.74;100.00
55149;BME280;49539;48.160;11.530;2022-11-20T05:11:49;95258.06;;;5.59;100.00
55149;BME280;49539;48.160;11.530;2022-11-20T05:14:15;95250.88;;;5.79;100.00
55149;BME280;49539;48.160;11.530;2022-11-20T05:16:40;95249.06;;;5.72;100.00
55149;BME280;49539;48.160;11.530;2022-11-20T05:19:06;95249.53;;;5.64;100.00
55149;BME280;49539;48.160;11.530;2022-11-20T05:21:31;95254.56;;;5.62;100.00
55149;BME280;49539;48.160;11.530;2022-11-20T05:23:57;95246.84;;;5.64;100.00
55149;BME280;49539;48.160;11.530;2022-11-20T05:26:22;95254.53;;;5.65;100.00
55149;BME280;49539;48.160;11.530;2022-11-20T05:28:48;95259.63;;;5.60;100.00
55149;BME280;49539;48.160;11.530;2022-11-20T05:31:14;95259.28;;;5.54;100.00
55149;BME280;49539;48.160;11.530;2022-11-20T05:33:40;95263.59;;;5.48;100.00
55149;BME280;49539;48.160;11.530;2022-11-20T05:36:07;95257.44;;;5.47;100.00
55149;BME280;49539;48.160;11.530;2022-11-20T05:38:33;95260.59;;;5.39;100.00
55149;BME280;49539;48.160;11.530;2022-11-20T05:41:09;95254.69;;;5.51;100.00
55149;BME280;49539;48.160;11.530;2022-11-20T05:43:35;95248.50;;;5.51;100.00
55149;BME280;49539;48.160;11.530;2022-11-20T05:46:01;95253.03;;;5.61;100.00
55149;BME280;49539;48.160;11.530;2022-11-20T05:48:26;95260.41;;;5.57;100.00
55149;BME280;49539;48.160;11.530;2022-11-20T05:50:51;95253.56;;;5.48;100.00
55149;BME280;49539;48.160;11.530;2022-11-20T05:53:17;95256.63;;;5.51;100.00
55149;BME280;49539;48.160;11.530;2022-11-20T05:55:42;95263.13;;;5.57;100.00
55149;BME280;49539;48.160;11.530;2022-11-20T05:58:07;95259.31;;;5.51;100.00
55149;BME280;49539;48.160;11.530;2022-11-20T06:00:33;95264.44;;;5.41;100.00
55149;BME280;49539;48.160;11.530;2022-11-20T06:02:58;95260.56;;;5.42;100.00
55149;BME280;49539;48.160;11.530;2022-11-20T06:05:23;95260.78;;;5.59;100.00
55149;BME280;49539;48.160;11.530;2022-11-20T06:07:48;95260.56;;;5.42;100.00
55149;BME280;49539;48.160;11.530;2022-11-20T06:10:14;95260.56;;;5.42;100.00
55149;BME280;49539;48.160;11.530;2022-11-20T06:12:39;95255.59;;;5.37;100.00
55149;BME280;49539;48.160;11.530;2022-11-20T06:15:04;95260.94;;;5.44;100.00
55149;BME280;49539;48.160;11.530;2022-11-20T06:17:30;95266.38;;;5.41;100.00
55149;BME280;49539;48.160;11.530;2022-11-20T06:19:56;95263.91;;;5.19;100.00
55149;BME280;49539;48.160;11.530;2022-11-20T06:22:21;95262.31;;;5.22;100.00
55149;BME280;49539;48.160;11.530;2022-11-20T06:24:49;95255.31;;;5.28;100.00
55149;BME280;49539;48.160;11.530;2022-11-20T06:27:14;95260.75;;;5.25;100.00
55149;BME280;49539;48.160;11.530;2022-11-20T06:29:39;95260.72;;;5.28;100.00
55149;BME280;49539;48.160;11.530;2022-11-20T06:32:05;95256.16;;;5.21;100.00
55149;BME280;49539;48.160;11.530;2022-11-20T06:34:30;95266.22;;;5.17;100.00
55149;BME280;49539;48.160;11.530;2022-11-20T06:36:55;95267.06;;;5.11;100.00
55149;BME280;49539;48.160;11.530;2022-11-20T06:39:20;95262.75;;;5.17;100.00
55149;BME280;49539;48.160;11.530;2022-11-20T06:41:46;95273.13;;;5.22;100.00
55149;BME280;49539;48.160;11.530;2022-11-20T06:44:11;95271.91;;;5.27;100.00
55149;BME280;49539;48.160;11.530;2022-11-20T06:46:36;95271.22;;;5.22;100.00
55149;BME280;49539;48.160;11.530;2022-11-20T06:49:02;95276.47;;;5.33;100.00
55149;BME280;49539;48.160;11.530;2022-11-20T06:51:27;95277.19;;;5.41;100.00
55149;BME280;49539;48.160;11.530;2022-11-20T06:53:53;95278.88;;;5.28;100.00
55149;BME280;49539;48.160;11.530;2022-11-20T06:56:18;95282.66;;;5.34;100.00
55149;BME280;49539;48.160;11.530;2022-11-20T06:58:43;95284.44;;;5.47;100.00
55149;BME280;49539;48.160;11.530;2022-11-20T07:01:09;95288.81;;;5.34;100.00
55149;BME280;49539;48.160;11.530;2022-11-20T07:03:35;95287.97;;;5.41;100.00
55149;BME280;49539;48.160;11.530;2022-11-20T07:06:02;95295.75;;;5.35;100.00
55149;BME280;49539;48.160;11.530;2022-11-20T07:08:30;95290.00;;;5.30;100.00
55149;BME280;49539;48.160;11.530;2022-11-20T07:10:59;95285.28;;;5.41;100.00
55149;BME280;49539;48.160;11.530;2022-11-20T07:13:25;95291.34;;;5.52;100.00
55149;BME280;49539;48.160;11.530;2022-11-20T07:15:50;95295.25;;;5.47;100.00
55149;BME280;49539;48.160;11.530;2022-11-20T07:18:16;95299.50;;;5.48;100.00
55149;BME280;49539;48.160;11.530;2022-11-20T07:20:41;95294.06;;;5.52;100.00
55149;BME280;49539;48.160;11.530;2022-11-20T07:23:07;95296.81;;;5.45;100.00
55149;BME280;49539;48.160;11.530;2022-11-20T07:25:32;95301.00;;;5.50;100.00
55149;BME280;49539;48.160;11.530;2022-11-20T07:27:58;95304.72;;;5.63;100.00
55149;BME280;49539;48.160;11.530;2022-11-20T07:30:23;95301.72;;;5.57;100.00
55149;BME280;49539;48.160;11.530;2022-11-20T07:32:52;95308.59;;;5.62;100.00
55149;BME280;49539;48.160;11.530;2022-11-20T07:35:18;95302.22;;;5.79;100.00
55149;BME280;49539;48.160;11.530;2022-11-20T07:37:43;95296.63;;;5.63;100.00
55149;BME280;49539;48.160;11.530;2022-11-20T07:40:11;95295.38;;;5.71;100.00
55149;BME280;49539;48.160;11.530;2022-11-20T07:42:36;95294.63;;;5.70;100.00
55149;BME280;49539;48.160;11.530;2022-11-20T07:45:01;95299.97;;;5.74;100.00
55149;BME280;49539;48.160;11.530;2022-11-20T07:47:28;95303.19;;;5.62;100.00
55149;BME280;49539;48.160;11.530;2022-11-20T07:49:53;95297.66;;;5.76;100.00
55149;BME280;49539;48.160;11.530;2022-11-20T07:52:18;95298.13;;;5.67;100.00
55149;BME280;49539;48.160;11.530;2022-11-20T07:54:43;95302.41;;;5.65;100.00
55149;BME280;49539;48.160;11.530;2022-11-20T07:57:09;95306.63;;;5.66;100.00
55149;BME280;49539;48.160;11.530;2022-11-20T07:59:34;95305.34;;;5.78;100.00
55149;BME280;49539;48.160;11.530;2022-11-20T08:01:59;95299.19;;;5.77;100.00
55149;BME280;49539;48.160;11.530;2022-11-20T08:04:24;95304.81;;;5.90;100.00
55149;BME280;49539;48.160;11.530;2022-11-20T08:06:51;95308.25;;;5.97;100.00
55149;BME280;49539;48.160;11.530;2022-11-20T08:09:17;95309.47;;;5.89;100.00
55149;BME280;49539;48.160;11.530;2022-11-20T08:11:42;95315.22;;;5.91;100.00
55149;BME280;49539;48.160;11.530;2022-11-20T08:14:26;95310.84;;;6.05;100.00
55149;BME280;49539;48.160;11.530;2022-11-20T08:16:52;95306.75;;;5.93;100.00
55149;BME280;49539;48.160;11.530;2022-11-20T08:19:18;95313.69;;;5.90;100.00
55149;BME280;49539;48.160;11.530;2022-11-20T08:21:43;95308.38;;;5.83;100.00
55149;BME280;49539;48.160;11.530;2022-11-20T08:24:09;95320.28;;;5.89;100.00
55149;BME280;49539;48.160;11.530;2022-11-20T08:26:35;95322.47;;;6.02;100.00
55149;BME280;49539;48.160;11.530;2022-11-20T08:29:00;95314.09;;;5.89;100.00
55149;BME280;49539;48.160;11.530;2022-11-20T08:31:27;95318.91;;;6.08;100.00
55149;BME280;49539;48.160;11.530;2022-11-20T08:33:52;95313.69;;;6.25;100.00
55149;BME280;49539;48.160;11.530;2022-11-20T08:36:18;95313.19;;;6.33;100.00
55149;BME280;49539;48.160;11.530;2022-11-20T08:38:54;95315.41;;;6.42;100.00
55149;BME280;49539;48.160;11.530;2022-11-20T08:41:20;95313.97;;;6.34;100.00
55149;BME280;49539;48.160;11.530;2022-11-20T08:43:48;95311.19;;;6.37;100.00
55149;BME280;49539;48.160;11.530;2022-11-20T08:46:14;95314.63;;;6.41;100.00
55149;BME280;49539;48.160;11.530;2022-11-20T08:48:39;95307.59;;;6.47;100.00
55149;BME280;49539;48.160;11.530;2022-11-20T08:51:05;95305.41;;;6.39;100.00
55149;BME280;49539;48.160;11.530;2022-11-20T08:53:30;95315.34;;;6.45;100.00
55149;BME280;49539;48.160;11.530;2022-11-20T08:55:59;95309.13;;;6.49;100.00
55149;BME280;49539;48.160;11.530;2022-11-20T08:58:24;95305.59;;;6.52;100.00
55149;BME280;49539;48.160;11.530;2022-11-20T09:00:50;95304.41;;;6.53;100.00
55149;BME280;49539;48.160;11.530;2022-11-20T09:03:15;95306.06;;;6.46;100.00
55149;BME280;49539;48.160;11.530;2022-11-20T09:05:40;95304.69;;;6.35;100.00
55149;BME280;49539;48.160;11.530;2022-11-20T09:08:07;95305.69;;;6.44;100.00
55149;BME280;49539;48.160;11.530;2022-11-20T09:10:33;95298.28;;;6.49;100.00
55149;BME280;49539;48.160;11.530;2022-11-20T09:12:58;95298.97;;;6.56;100.00
55149;BME280;49539;48.160;11.530;2022-11-20T09:15:24;95303.44;;;6.66;100.00
55149;BME280;49539;48.160;11.530;2022-11-20T09:17:58;95306.09;;;6.70;100.00
55149;BME280;49539;48.160;11.530;2022-11-20T09:20:24;95294.97;;;6.64;100.00
55149;BME280;49539;48.160;11.530;2022-11-20T09:22:50;95301.97;;;6.62;100.00
55149;BME280;49539;48.160;11.530;2022-11-20T09:25:16;95291.97;;;6.59;100.00
55149;BME280;49539;48.160;11.530;2022-11-20T09:27:41;95285.06;;;6.81;100.00
55149;BME280;49539;48.160;11.530;2022-11-20T09:30:09;95291.47;;;6.91;100.00
55149;BME280;49539;48.160;11.530;2022-11-20T09:32:34;95287.25;;;6.90;100.00
55149;BME280;49539;48.160;11.530;2022-11-20T09:35:00;95292.72;;;6.86;100.00
55149;BME280;49539;48.160;11.530;2022-11-20T09:37:26;95284.28;;;6.81;100.00
55149;BME280;49539;48.160;11.530;2022-11-20T09:39:53;95283.47;;;6.84;100.00
55149;BME280;49539;48.160;11.530;2022-11-20T09:50:38;95278.94;;;7.01;100.00
55149;BME280;49539;48.160;11.530;2022-11-20T09:55:50;95272.03;;;7.19;100.00
55149;BME280;49539;48.160;11.530;2022-11-20T09:58:27;95280.69;;;7.34;100.00
55149;BME280;49539;48.160;11.530;2022-11-20T10:01:15;95279.13;;;7.37;100.00
55149;BME280;49539;48.160;11.530;2022-11-20T10:09:28;95265.66;;;7.73;100.00
55149;BME280;49539;48.160;11.530;2022-11-20T10:12:07;95267.88;;;7.78;100.00
55149;BME280;49539;48.160;11.530;2022-11-20T10:14:43;95266.44;;;7.74;100.00
55149;BME280;49539;48.160;11.530;2022-11-20T10:19:47;95268.97;;;7.81;100.00
55149;BME280;49539;48.160;11.530;2022-11-20T10:27:17;95273.25;;;7.62;100.00
55149;BME280;49539;48.160;11.530;2022-11-20T10:29:52;95278.84;;;7.51;100.00
55149;BME280;49539;48.160;11.530;2022-11-20T10:32:26;95279.06;;;7.60;100.00
55149;BME280;49539;48.160;11.530;2022-11-20T10:34:57;95265.31;;;7.71;100.00
55149;BME280;49539;48.160;11.530;2022-11-20T10:37:25;95268.34;;;7.73;100.00
55149;BME280;49539;48.160;11.530;2022-11-20T10:39:53;95258.28;;;7.93;100.00
55149;BME280;49539;48.160;11.530;2022-11-20T10:43:06;95259.13;;;7.90;100.00
55149;BME280;49539;48.160;11.530;2022-11-20T10:45:21;95264.00;;;7.79;100.00
55149;BME280;49539;48.160;11.530;2022-11-20T10:47:52;95266.13;;;7.88;100.00
55149;BME280;49539;48.160;11.530;2022-11-20T10:50:19;95265.88;;;7.82;100.00
55149;BME280;49539;48.160;11.530;2022-11-20T10:55:31;95271.28;;;7.82;100.00
55149;BME280;49539;48.160;11.530;2022-11-20T10:58:10;95280.94;;;7.63;100.00
55149;BME280;49539;48.160;11.530;2022-11-20T11:00:37;95267.25;;;7.70;100.00
55149;BME280;49539;48.160;11.530;2022-11-20T11:03:02;95273.31;;;7.78;100.00
55149;BME280;49539;48.160;11.530;2022-11-20T11:05:38;95259.94;;;7.67;100.00
55149;BME280;49539;48.160;11.530;2022-11-20T11:08:07;95266.44;;;7.74;100.00
55149;BME280;49539;48.160;11.530;2022-11-20T11:10:46;95242.16;;;7.66;100.00
55149;BME280;49539;48.160;11.530;2022-11-20T11:13:20;95252.09;;;7.53;100.00
55149;BME280;49539;48.160;11.530;2022-11-20T11:15:46;95252.53;;;7.71;100.00
55149;BME280;49539;48.160;11.530;2022-11-20T11:18:11;95247.66;;;7.83;100.00
55149;BME280;49539;48.160;11.530;2022-11-20T11:20:49;95240.34;;;7.80;100.00
55149;BME280;49539;48.160;11.530;2022-11-20T11:23:25;95249.75;;;7.75;100.00
55149;BME280;49539;48.160;11.530;2022-11-20T11:25:56;95237.22;;;7.81;100.00
55149;BME280;49539;48.160;11.530;2022-11-20T11:28:22;95245.47;;;7.94;100.00
55149;BME280;49539;48.160;11.530;2022-11-20T11:30:50;95233.53;;;7.91;100.00
55149;BME280;49539;48.160;11.530;2022-11-20T11:33:20;95227.97;;;7.99;100.00
55149;BME280;49539;48.160;11.530;2022-11-20T11:35:50;95222.47;;;8.55;100.00
55149;BME280;49539;48.160;11.530;2022-11-20T11:38:21;95223.16;;;8.23;100.00
55149;BME280;49539;48.160;11.530;2022-11-20T11:40:48;95249.56;;;8.02;100.00
55149;BME280;49539;48.160;11.530;2022-11-20T11:43:20;95231.38;;;7.83;100.00
55149;BME280;49539;48.160;11.530;2022-11-20T11:46:15;95237.91;;;7.85;100.00
55149;BME280;49539;48.160;11.530;2022-11-20T11:49:08;95223.59;;;7.85;100.00
55149;BME280;49539;48.160;11.530;2022-11-20T11:57:10;95237.56;;;7.63;100.00
55149;BME280;49539;48.160;11.530;2022-11-20T12:07:38;95244.56;;;7.21;100.00
55149;BME280;49539;48.160;11.530;2022-11-20T12:10:05;95244.84;;;7.03;100.00
55149;BME280;49539;48.160;11.530;2022-11-20T12:12:38;95245.97;;;6.82;100.00
55149;BME280;49539;48.160;11.530;2022-11-20T12:15:09;95242.16;;;6.80;100.00
55149;BME280;49539;48.160;11.530;2022-11-20T12:17:36;95248.56;;;6.66;100.00
55149;BME280;49539;48.160;11.530;2022-11-20T12:20:01;95249.41;;;6.63;100.00
55149;BME280;49539;48.160;11.530;2022-11-20T12:29:46;95236.31;;;6.81;100.00
55149;BME280;49539;48.160;11.530;2022-11-20T12:40:49;95226.97;;;6.86;100.00
55149;BME280;49539;48.160;11.530;2022-11-20T12:43:11;95235.69;;;6.97;100.00
55149;BME280;49539;48.160;11.530;2022-11-20T12:45:59;95227.53;;;7.20;100.00
55149;BME280;49539;48.160;11.530;2022-11-20T13:01:32;95234.03;;;6.80;100.00
55149;BME280;49539;48.160;11.530;2022-11-20T13:06:42;95227.94;;;6.49;100.00
55149;BME280;49539;48.160;11.530;2022-11-20T13:09:08;95229.28;;;6.64;100.00
55149;BME280;49539;48.160;11.530;2022-11-20T13:11:57;95230.13;;;6.57;100.00
55149;BME280;49539;48.160;11.530;2022-11-20T13:16:53;95229.66;;;6.39;100.00
55149;BME280;49539;48.160;11.530;2022-11-20T13:19:19;95222.00;;;6.34;100.00
55149;BME280;49539;48.160;11.530;2022-11-20T13:21:46;95223.81;;;6.40;100.00
55149;BME280;49539;48.160;11.530;2022-11-20T13:29:30;95210.75;;;6.35;100.00
55149;BME280;49539;48.160;11.530;2022-11-20T13:32:06;95215.72;;;6.40;100.00
55149;BME280;49539;48.160;11.530;2022-11-20T13:34:32;95211.06;;;6.41;100.00
55149;BME280;49539;48.160;11.530;2022-11-20T13:36:58;95211.75;;;6.45;100.00
55149;BME280;49539;48.160;11.530;2022-11-20T13:41:54;95210.25;;;6.44;100.00
55149;BME280;49539;48.160;11.530;2022-11-20T13:44:39;95200.72;;;6.59;100.00
55149;BME280;49539;48.160;11.530;2022-11-20T13:47:17;95197.00;;;6.50;100.00
55149;BME280;49539;48.160;11.530;2022-11-20T13:49:45;95198.78;;;6.60;100.00
55149;BME280;49539;48.160;11.530;2022-11-20T13:55:23;95188.94;;;6.69;100.00
55149;BME280;49539;48.160;11.530;2022-11-20T13:59:57;95196.09;;;6.60;100.00
55149;BME280;49539;48.160;11.530;2022-11-20T14:02:25;95200.59;;;6.66;100.00
55149;BME280;49539;48.160;11.530;2022-11-20T14:04:52;95190.66;;;6.60;100.00
55149;BME280;49539;48.160;11.530;2022-11-20T14:07:18;95206.44;;;6.65;100.00
55149;BME280;49539;48.160;11.530;2022-11-20T14:09:49;95196.59;;;6.75;100.00
55149;BME280;49539;48.160;11.530;2022-11-20T14:12:15;95195.97;;;6.67;100.00
55149;BME280;49539;48.160;11.530;2022-11-20T14:14:47;95194.41;;;6.66;100.00
55149;BME280;49539;48.160;11.530;2022-11-20T14:17:20;95201.78;;;6.65;100.00
55149;BME280;49539;48.160;11.530;2022-11-20T14:19:46;95193.59;;;6.69;100.00
55149;BME280;49539;48.160;11.530;2022-11-20T14:24:41;95200.44;;;6.77;100.00
55149;BME280;49539;48.160;11.530;2022-11-20T14:27:16;95201.13;;;6.81;100.00
55149;BME280;49539;48.160;11.530;2022-11-20T14:29:43;95198.16;;;6.76;100.00